Portada
METAR-TAF:

METAR-TAF

Aeroports :

Bagdad, Iraq

latitud: 33-15-45N, longitud: 44-14-04E, altitud: 35 m

Observació

L'informe es va fer fa 31 minuts, a les 22:00 UTC
Vent 2 kt amb direcció variable
Temperatura 20°C
Humitat 49%
Pressió 1017 hPa
Visibilitat 10 km o més
sense núvols per sota de 1500 mi sense presència de cumulonimbus.

METAR: ORBI 132200Z VRB02KT CAVOK 20/09 Q1017 NOSIG

Hora: 01:31 (22:31 UTC)

Pronòstic

L'informe es va fer fa 6 hores i 31 minuts, a les 16:00 UTC
Pronòstic vàlid del 13 a les 18 UTC al 14 a les 18 UTC
Vent 12 kt del Oest/Nord-Oest
Visibilitat: 8000 m
Evolucionant progressivament
l' 13 a les 20 UTC al 13 a les 22 UTC
Escasses núvols a una alçada de 2500 ft, Cumulonimbus.

TAF: ORBI 131600Z 1318/1418 30012KT 8000 NSC BECMG 1320/1322 -TSSHRA FEW025CB

Observacions i pronòstics meteorològics de més de 4000 aeroports (METAR i TAF).

Les estacions disponibles són els punts grocs i vermells al mapa.

Posi el ratolí al punt desitjat per veure el nom de l'estació.

Feu clic per veure les observacions i els pronòstics meteorològics.

Per canviar el mapa: feu clic els botons verds amb una creu de color negre per apropar; al botó verd amb un guió per allunyar la imatge; o en les fletxes verdes per a mapes adjacents.


METAR-TAF: